Time;durP1;ratioP1;P1;durP2;ratioP2;P2;SDS_P1;SDS_P2;PMS_P1;PMS_P2;Temp;Humidity;BMP_temperature;BMP_pressure;BME280_temperature;BME280_humidity;BME280_pressure;Samples;Min_cycle;Max_cycle;Signal;HPM_P1;HPM_P2
2022/05/30 00:01:18;;;;;;;2.38;1.30;;;8.60;99.90;;;;;;5092736;28;20101;-65
2022/05/30 00:03:45;;;;;;;7.28;1.88;;;8.50;99.90;;;;;;5093920;28;20427;-66
2022/05/30 00:06:13;;;;;;;4.60;1.58;;;8.50;99.90;;;;;;5094086;28;20088;-66
2022/05/30 00:08:40;;;;;;;5.20;1.50;;;8.50;99.90;;;;;;5094895;28;20058;-65
2022/05/30 00:11:09;;;;;;;5.85;1.95;;;8.50;99.90;;;;;;5108052;28;20062;-65
2022/05/30 00:13:35;;;;;;;4.57;1.50;;;8.40;99.90;;;;;;5115683;28;20052;-65
2022/05/30 00:16:06;;;;;;;5.25;1.65;;;8.40;99.90;;;;;;5147271;27;20060;-66
2022/05/30 00:18:31;;;;;;;3.55;1.50;;;8.40;99.90;;;;;;5131329;27;20132;-66
2022/05/30 00:20:58;;;;;;;6.13;1.95;;;8.40;99.90;;;;;;5109485;28;20144;-65
2022/05/30 00:23:24;;;;;;;7.85;1.88;;;8.40;99.90;;;;;;5093556;28;20096;-65
2022/05/30 00:25:49;;;;;;;5.47;1.85;;;8.30;99.90;;;;;;5110257;28;20104;-66
2022/05/30 00:28:18;;;;;;;5.00;1.65;;;8.30;99.90;;;;;;5092694;28;20138;-65
2022/05/30 00:30:45;;;;;;;6.97;1.77;;;8.30;99.90;;;;;;5110303;28;20054;-66
2022/05/30 00:33:11;;;;;;;4.78;1.58;;;8.30;99.90;;;;;;5092388;28;20094;-65
2022/05/30 00:35:38;;;;;;;5.18;1.83;;;8.30;99.90;;;;;;5094042;28;20259;-66
2022/05/30 00:38:04;;;;;;;4.60;1.67;;;8.30;99.90;;;;;;5092674;28;20412;-65
2022/05/30 00:40:31;;;;;;;4.13;2.13;;;8.20;99.90;;;;;;5101408;28;20043;-66
2022/05/30 00:43:15;;;;;;;5.18;2.25;;;8.20;99.90;;;;;;5147065;27;20488;-64
2022/05/30 00:45:41;;;;;;;6.32;2.08;;;8.10;99.90;;;;;;5147484;27;20108;-66
2022/05/30 00:48:07;;;;;;;7.03;2.10;;;8.10;99.90;;;;;;5104560;28;20451;-66
2022/05/30 00:50:32;;;;;;;3.75;2.15;;;8.00;99.90;;;;;;5094053;28;20143;-66
2022/05/30 00:52:58;;;;;;;3.58;1.80;;;7.90;99.90;;;;;;5092449;28;20119;-66
2022/05/30 00:55:24;;;;;;;4.85;2.10;;;7.90;99.90;;;;;;5092859;28;20087;-65
2022/05/30 00:57:50;;;;;;;6.97;2.17;;;7.80;99.90;;;;;;5093205;28;20062;-66
2022/05/30 01:00:25;;;;;;;4.30;2.00;;;7.70;99.90;;;;;;5091962;28;20468;-66
2022/05/30 01:06:30;;;;;;;5.25;2.53;;;7.70;99.90;;;;;;5090848;28;20387;-66
2022/05/30 01:08:26;;;;;;;5.72;2.33;;;7.70;99.90;;;;;;5092052;28;20492;-65
2022/05/30 01:10:52;;;;;;;6.95;2.40;;;7.70;99.90;;;;;;5109779;28;20129;-66
2022/05/30 01:13:17;;;;;;;7.85;2.38;;;7.70;99.90;;;;;;5091876;28;20087;-66
2022/05/30 01:15:43;;;;;;;9.68;2.20;;;7.70;99.90;;;;;;5093088;28;20052;-65
2022/05/30 01:18:21;;;;;;;3.92;2.88;;;7.60;99.90;;;;;;5091518;28;20106;-65
2022/05/30 01:20:59;;;;;;;7.65;2.80;;;7.70;99.90;;;;;;5074938;28;20051;-65
2022/05/30 01:23:47;;;;;;;6.50;2.30;;;7.50;99.90;;;;;;5093854;28;20358;-66
2022/05/30 01:26:36;;;;;;;5.68;2.40;;;7.50;99.90;;;;;;5126178;27;20476;-65
2022/05/30 01:29:13;;;;;;;4.55;2.03;;;7.40;99.90;;;;;;5091917;28;20207;-66
2022/05/30 01:31:39;;;;;;;5.50;2.17;;;7.30;99.90;;;;;;5107463;28;20123;-66
2022/05/30 01:34:05;;;;;;;6.15;2.17;;;7.20;99.90;;;;;;5093308;28;20211;-65
2022/05/30 01:36:32;;;;;;;5.75;2.17;;;7.20;99.90;;;;;;5092080;28;20124;-65
2022/05/30 01:38:58;;;;;;;4.78;2.42;;;7.20;99.90;;;;;;5093597;28;20376;-66
2022/05/30 01:41:23;;;;;;;6.20;2.38;;;7.20;99.90;;;;;;5074401;28;20044;-65
2022/05/30 01:43:50;;;;;;;7.30;2.45;;;7.10;99.90;;;;;;5126135;27;20055;-66
2022/05/30 01:46:21;;;;;;;5.55;2.65;;;7.20;99.90;;;;;;5092043;28;20485;-65
2022/05/30 01:48:47;;;;;;;4.07;1.95;;;7.00;99.90;;;;;;5091402;28;20113;-65
2022/05/30 01:51:15;;;;;;;7.30;2.40;;;7.10;99.90;;;;;;5093260;28;20126;-66
2022/05/30 01:53:40;;;;;;;4.55;2.13;;;7.00;99.90;;;;;;5108786;28;20056;-66
2022/05/30 01:56:06;;;;;;;5.50;2.58;;;7.00;99.90;;;;;;5095785;28;20066;-66
2022/05/30 01:58:32;;;;;;;6.00;2.15;;;7.00;99.90;;;;;;5111033;28;20428;-66
2022/05/30 02:01:02;;;;;;;7.03;2.22;;;7.00;99.90;;;;;;5104894;28;20053;-66
2022/05/30 02:03:30;;;;;;;6.13;2.38;;;7.10;99.90;;;;;;5088704;28;20447;-66
2022/05/30 02:05:56;;;;;;;4.43;2.17;;;7.00;99.90;;;;;;5093165;28;20121;-65
2022/05/30 02:08:21;;;;;;;6.65;2.38;;;7.00;99.90;;;;;;5092198;28;20207;-66
2022/05/30 02:10:48;;;;;;;9.07;2.65;;;7.00;99.90;;;;;;5105225;28;20540;-65
2022/05/30 02:13:15;;;;;;;3.38;2.42;;;7.00;99.90;;;;;;5116074;28;20051;-65
2022/05/30 02:18:25;;;;;;;6.85;2.42;;;7.00;99.90;;;;;;5097826;28;20500;-66
2022/05/30 02:20:51;;;;;;;7.05;2.10;;;7.00;99.90;;;;;;5079252;28;20052;-66
2022/05/30 02:23:17;;;;;;;5.95;2.10;;;7.00;99.90;;;;;;5096602;28;20162;-65
2022/05/30 02:25:43;;;;;;;5.63;2.30;;;6.90;99.90;;;;;;5096044;28;20161;-64
2022/05/30 02:28:09;;;;;;;5.65;2.38;;;6.90;99.90;;;;;;5095152;28;20120;-66
2022/05/30 02:30:35;;;;;;;7.32;2.47;;;6.90;99.90;;;;;;5096853;28;20060;-66
2022/05/30 02:38:29;;;;;;;6.53;2.30;;;6.90;99.90;;;;;;5116932;28;20139;-65
2022/05/30 02:40:55;;;;;;;5.50;2.10;;;6.80;99.90;;;;;;5149909;27;20051;-65
2022/05/30 02:43:20;;;;;;;4.50;2.28;;;6.80;99.90;;;;;;5135236;27;20083;-66
2022/05/30 02:45:46;;;;;;;4.03;2.03;;;6.70;99.90;;;;;;5128680;27;20052;-66
2022/05/30 02:48:12;;;;;;;4.97;2.33;;;6.70;99.90;;;;;;5095052;28;20045;-66
2022/05/30 02:50:38;;;;;;;4.90;2.25;;;6.60;99.90;;;;;;5110643;28;20052;-65
2022/05/30 02:53:03;;;;;;;4.72;2.17;;;6.60;99.90;;;;;;5111545;28;20056;-65
2022/05/30 02:55:29;;;;;;;5.43;2.33;;;6.50;99.90;;;;;;5096025;28;20052;-66
2022/05/30 02:57:55;;;;;;;5.75;2.28;;;6.50;99.90;;;;;;5079662;28;20048;-66
2022/05/30 03:00:20;;;;;;;6.45;2.33;;;6.50;99.90;;;;;;5075842;28;20064;-65
2022/05/30 03:02:46;;;;;;;5.60;2.47;;;6.40;99.90;;;;;;5094501;28;20040;-65
2022/05/30 03:05:11;;;;;;;6.30;2.53;;;6.40;99.90;;;;;;5093718;28;20048;-66
2022/05/30 03:07:37;;;;;;;4.40;1.80;;;6.30;99.90;;;;;;5094237;28;20060;-65
2022/05/30 03:10:03;;;;;;;2.78;2.20;;;6.30;99.90;;;;;;5096103;28;20200;-64
2022/05/30 03:12:29;;;;;;;4.70;1.90;;;6.20;99.90;;;;;;5128207;27;20170;-65
2022/05/30 03:14:55;;;;;;;3.33;2.15;;;6.20;99.90;;;;;;5095769;28;20093;-65
2022/05/30 03:17:20;;;;;;;4.55;2.20;;;6.10;99.90;;;;;;5094956;28;20055;-64
2022/05/30 03:19:46;;;;;;;4.32;2.20;;;6.10;99.90;;;;;;5101592;28;20120;-65
2022/05/30 03:22:12;;;;;;;6.88;1.90;;;6.00;99.90;;;;;;5116244;28;20052;-64
2022/05/30 03:24:37;;;;;;;5.80;2.65;;;6.10;99.90;;;;;;5115923;28;20055;-65
2022/05/30 03:27:03;;;;;;;6.57;2.40;;;6.00;99.90;;;;;;5109489;28;20051;-65
2022/05/30 03:29:29;;;;;;;5.40;2.40;;;6.10;99.90;;;;;;5128878;27;20044;-65
2022/05/30 03:31:54;;;;;;;6.32;2.90;;;6.10;99.90;;;;;;5093664;28;20394;-64
2022/05/30 03:34:20;;;;;;;3.85;2.22;;;6.00;99.90;;;;;;5077453;28;20046;-65
2022/05/30 03:36:46;;;;;;;2.40;1.85;;;6.00;99.90;;;;;;5094350;28;20083;-65
2022/05/30 03:39:13;;;;;;;4.35;2.50;;;6.00;99.90;;;;;;5094048;28;20376;-64
2022/05/30 03:41:39;;;;;;;5.78;2.25;;;6.00;99.90;;;;;;5097206;28;20438;-65
2022/05/30 03:44:04;;;;;;;5.20;2.42;;;6.00;99.90;;;;;;5115865;27;20059;-65
2022/05/30 03:46:31;;;;;;;5.82;2.50;;;6.10;99.90;;;;;;5148347;27;20054;-65
2022/05/30 03:48:57;;;;;;;4.15;2.40;;;6.00;99.90;;;;;;5105862;28;20046;-65
2022/05/30 03:51:24;;;;;;;6.03;2.40;;;6.00;99.90;;;;;;5110762;28;20450;-66
2022/05/30 03:53:51;;;;;;;3.85;2.33;;;6.00;99.90;;;;;;5095368;28;20064;-65
2022/05/30 03:56:19;;;;;;;4.57;2.25;;;6.00;99.90;;;;;;5093837;28;20052;-65
2022/05/30 03:58:44;;;;;;;6.88;2.40;;;6.00;99.90;;;;;;5095270;28;20054;-65
2022/05/30 04:01:10;;;;;;;4.60;2.30;;;6.00;99.90;;;;;;5094609;28;20403;-66
2022/05/30 04:03:36;;;;;;;3.35;2.47;;;5.90;99.90;;;;;;5093585;28;20047;-65
2022/05/30 04:06:03;;;;;;;3.78;2.40;;;5.90;99.90;;;;;;5112680;28;20381;-65
2022/05/30 04:08:28;;;;;;;4.72;2.42;;;6.00;99.90;;;;;;5148342;27;20054;-66
2022/05/30 04:10:55;;;;;;;5.05;2.67;;;6.00;99.90;;;;;;5114904;28;20047;-64
2022/05/30 04:13:20;;;;;;;3.20;2.30;;;6.00;99.90;;;;;;5097244;28;20052;-65
2022/05/30 04:15:46;;;;;;;5.05;2.63;;;6.00;99.90;;;;;;5092872;28;20058;-64
2022/05/30 04:18:12;;;;;;;3.05;2.53;;;6.00;99.90;;;;;;5093910;28;20051;-66
2022/05/30 04:20:40;;;;;;;5.70;2.60;;;5.90;99.90;;;;;;5093514;28;20047;-65
2022/05/30 04:23:05;;;;;;;5.90;2.92;;;6.00;99.90;;;;;;5092958;28;20093;-66
2022/05/30 04:25:31;;;;;;;5.13;2.67;;;6.10;99.90;;;;;;5093624;28;20051;-65
2022/05/30 04:27:57;;;;;;;5.80;2.33;;;6.20;99.90;;;;;;5111817;28;20408;-64
2022/05/30 04:30:23;;;;;;;3.65;2.67;;;6.20;99.90;;;;;;5107586;28;20404;-65
2022/05/30 04:32:49;;;;;;;5.68;2.47;;;6.40;99.90;;;;;;5091940;28;20352;-65
2022/05/30 04:35:16;;;;;;;4.65;2.45;;;6.40;99.90;;;;;;5093303;28;20052;-66
2022/05/30 04:37:41;;;;;;;6.60;2.90;;;6.40;99.90;;;;;;5094502;28;20108;-65
2022/05/30 04:40:11;;;;;;;3.95;2.50;;;6.60;99.90;;;;;;5100771;28;20130;-65
2022/05/30 04:42:36;;;;;;;8.07;3.15;;;6.60;99.90;;;;;;5114629;27;20181;-65
2022/05/30 04:45:02;;;;;;;5.90;2.50;;;6.70;99.90;;;;;;5105101;28;20576;-66
2022/05/30 04:47:28;;;;;;;6.15;2.63;;;6.80;99.90;;;;;;5092468;28;20047;-65
2022/05/30 04:49:53;;;;;;;5.13;2.50;;;6.90;99.90;;;;;;5093117;28;20056;-66
2022/05/30 04:52:19;;;;;;;4.78;2.70;;;7.10;99.90;;;;;;5092806;28;20059;-65
2022/05/30 04:54:45;;;;;;;5.72;2.80;;;7.10;99.90;;;;;;5092706;28;20126;-65
2022/05/30 04:57:11;;;;;;;4.78;2.33;;;7.20;99.90;;;;;;5081252;28;20500;-65
2022/05/30 04:59:41;;;;;;;5.57;2.75;;;7.30;99.90;;;;;;5106584;28;20080;-65
2022/05/30 05:02:08;;;;;;;7.70;2.50;;;7.30;99.90;;;;;;5105678;28;20342;-65
2022/05/30 05:04:34;;;;;;;3.72;2.67;;;7.50;99.90;;;;;;5074130;28;20102;-66
2022/05/30 05:07:01;;;;;;;3.85;2.88;;;7.60;99.90;;;;;;5073310;28;20152;-65
2022/05/30 05:09:50;;;;;;;6.13;2.70;;;7.80;99.90;;;;;;5073569;28;20088;-65
2022/05/30 05:12:16;;;;;;;3.90;2.22;;;8.00;99.90;;;;;;5094638;28;20048;-66
2022/05/30 05:14:41;;;;;;;4.22;2.50;;;8.10;99.90;;;;;;5125488;27;20110;-66
2022/05/30 05:17:08;;;;;;;5.30;2.30;;;8.20;99.90;;;;;;5090690;28;20056;-66
2022/05/30 05:19:38;;;;;;;4.68;2.72;;;8.30;99.90;;;;;;5146481;27;20059;-65
2022/05/30 05:22:04;;;;;;;6.05;2.45;;;8.50;99.90;;;;;;5146518;27;20058;-65
2022/05/30 05:24:29;;;;;;;3.85;2.47;;;8.60;99.90;;;;;;5093698;28;20048;-66
2022/05/30 05:26:55;;;;;;;2.75;2.25;;;8.70;99.90;;;;;;5099903;28;20047;-65
2022/05/30 05:29:21;;;;;;;6.22;2.30;;;8.80;99.90;;;;;;5126243;27;20066;-65
2022/05/30 05:31:47;;;;;;;3.17;2.20;;;9.10;99.90;;;;;;5101129;28;20116;-65
2022/05/30 05:34:14;;;;;;;6.80;2.25;;;10.00;99.90;;;;;;5126393;27;20547;-67
2022/05/30 05:36:44;;;;;;;3.65;1.80;;;11.10;99.90;;;;;;5083954;28;20063;-64
2022/05/30 05:39:11;;;;;;;5.15;2.20;;;11.80;99.90;;;;;;5089001;28;20044;-64
2022/05/30 05:41:39;;;;;;;3.95;1.98;;;12.40;99.90;;;;;;5117021;27;20044;-65
2022/05/30 05:44:05;;;;;;;2.30;1.95;;;12.70;99.90;;;;;;5085448;28;20400;-66
2022/05/30 05:46:32;;;;;;;2.50;1.70;;;12.80;99.90;;;;;;5091790;28;20052;-66
2022/05/30 05:48:59;;;;;;;3.10;1.88;;;13.10;99.90;;;;;;5076063;28;20052;-66
2022/05/30 05:51:26;;;;;;;3.70;2.22;;;13.80;99.90;;;;;;5080656;28;20048;-66
2022/05/30 05:53:53;;;;;;;3.90;1.77;;;14.50;99.90;;;;;;5082536;28;20043;-66
2022/05/30 05:56:27;;;;;;;2.72;1.90;;;15.00;99.90;;;;;;5080416;28;20067;-66
2022/05/30 05:58:53;;;;;;;3.30;1.75;;;15.50;99.90;;;;;;5082728;28;20052;-66
2022/05/30 06:01:21;;;;;;;1.95;1.33;;;16.30;99.90;;;;;;5081905;28;20077;-66
2022/05/30 06:03:48;;;;;;;6.72;1.90;;;17.00;99.90;;;;;;5103155;28;20112;-65
2022/05/30 06:06:13;;;;;;;3.00;1.00;;;17.50;99.90;;;;;;5096676;28;20056;-66
2022/05/30 06:08:39;;;;;;;3.10;1.40;;;17.10;99.90;;;;;;5092991;28;20048;-66
2022/05/30 06:11:05;;;;;;;2.55;1.42;;;16.70;99.90;;;;;;5092642;28;20052;-66
2022/05/30 06:13:34;;;;;;;2.00;0.90;;;15.80;99.90;;;;;;5090967;28;20070;-66
2022/05/30 06:16:02;;;;;;;3.60;1.13;;;15.20;99.90;;;;;;5091007;28;20052;-66
2022/05/30 06:18:28;;;;;;;1.95;1.20;;;14.70;99.90;;;;;;5095332;28;20056;-66
2022/05/30 06:20:58;;;;;;;3.88;1.02;;;14.30;99.90;;;;;;5092521;28;20070;-66
2022/05/30 06:23:23;;;;;;;3.05;1.20;;;13.90;99.90;;;;;;5092476;28;20397;-66
2022/05/30 06:25:49;;;;;;;2.85;1.10;;;13.50;99.90;;;;;;5090985;28;20059;-66
2022/05/30 06:28:14;;;;;;;2.40;0.95;;;13.40;99.90;;;;;;5100805;28;20048;-67
2022/05/30 06:30:40;;;;;;;2.65;1.20;;;13.30;99.90;;;;;;5100394;28;20469;-67
2022/05/30 06:33:05;;;;;;;2.15;1.30;;;13.30;99.90;;;;;;5098159;28;20396;-66
2022/05/30 06:35:31;;;;;;;4.75;1.48;;;13.30;99.90;;;;;;5105382;28;20095;-66
2022/05/30 06:37:56;;;;;;;2.60;1.02;;;13.20;99.90;;;;;;5095900;28;20055;-66
2022/05/30 06:40:22;;;;;;;4.63;1.02;;;12.90;99.90;;;;;;5091101;28;20108;-65
2022/05/30 06:42:48;;;;;;;3.33;1.00;;;12.70;99.90;;;;;;5092197;28;20125;-65
2022/05/30 06:45:13;;;;;;;3.88;1.02;;;12.70;99.90;;;;;;5091535;28;20063;-66
2022/05/30 06:47:39;;;;;;;2.75;0.75;;;12.60;99.90;;;;;;5090822;28;20473;-66
2022/05/30 06:50:05;;;;;;;3.80;1.10;;;12.60;99.90;;;;;;5090932;28;20080;-65
2022/05/30 06:52:30;;;;;;;3.17;1.00;;;12.60;99.90;;;;;;5090265;28;20044;-66
2022/05/30 06:54:56;;;;;;;3.63;1.10;;;12.60;99.90;;;;;;5092856;28;20143;-65
2022/05/30 07:00:06;;;;;;;2.63;0.93;;;12.80;99.90;;;;;;5095378;28;20504;-66
2022/05/30 07:02:32;;;;;;;2.42;0.90;;;13.10;99.90;;;;;;5095408;28;20097;-65
2022/05/30 07:04:57;;;;;;;3.45;1.05;;;13.30;99.90;;;;;;5095606;28;20456;-65
2022/05/30 07:07:23;;;;;;;3.50;0.70;;;13.30;99.90;;;;;;5095743;28;20507;-66
2022/05/30 07:09:48;;;;;;;0.85;0.60;;;13.40;99.90;;;;;;5094720;28;20497;-65
2022/05/30 07:12:14;;;;;;;1.63;0.60;;;13.30;99.90;;;;;;5096018;28;20071;-65
2022/05/30 07:14:39;;;;;;;2.28;0.80;;;13.30;99.90;;;;;;5095226;28;20060;-66
2022/05/30 07:17:10;;;;;;;1.75;0.77;;;13.30;99.90;;;;;;5094905;28;20123;-65
2022/05/30 07:19:35;;;;;;;2.25;0.75;;;13.30;99.90;;;;;;5111208;28;20055;-65
2022/05/30 07:22:02;;;;;;;2.10;0.65;;;13.40;99.90;;;;;;5095306;28;20052;-65
2022/05/30 07:24:27;;;;;;;1.88;1.00;;;13.60;99.90;;;;;;5094704;28;20055;-66
2022/05/30 07:26:53;;;;;;;1.00;0.77;;;13.70;99.90;;;;;;5095550;28;20444;-65
2022/05/30 07:29:18;;;;;;;1.58;0.88;;;13.80;99.90;;;;;;5094343;28;20503;-66
2022/05/30 07:31:44;;;;;;;1.60;0.82;;;13.80;99.90;;;;;;5095244;28;20048;-64
2022/05/30 07:34:09;;;;;;;2.53;0.80;;;13.90;99.90;;;;;;5095522;28;20131;-65
2022/05/30 07:36:35;;;;;;;1.67;0.80;;;14.00;99.90;;;;;;5093523;28;20147;-65
2022/05/30 07:39:01;;;;;;;2.80;0.80;;;14.10;99.90;;;;;;5095064;28;20230;-65
2022/05/30 07:41:28;;;;;;;1.50;0.85;;;14.10;99.90;;;;;;5095212;28;20104;-66
2022/05/30 07:43:54;;;;;;;1.17;0.93;;;14.00;99.90;;;;;;5127487;27;20054;-65
2022/05/30 07:46:20;;;;;;;2.85;1.15;;;14.00;99.90;;;;;;5093543;28;20119;-65
2022/05/30 07:48:46;;;;;;;2.75;1.00;;;14.10;99.90;;;;;;5095298;28;20086;-66
2022/05/30 07:51:13;;;;;;;2.58;0.90;;;14.20;99.90;;;;;;5093485;28;20079;-64
2022/05/30 07:53:41;;;;;;;2.15;0.68;;;14.30;99.90;;;;;;5112666;27;20048;-65
2022/05/30 07:56:11;;;;;;;1.92;0.82;;;14.60;99.90;;;;;;5110481;28;20047;-64
2022/05/30 07:58:37;;;;;;;3.15;0.77;;;14.80;99.90;;;;;;5108720;28;20047;-65
2022/05/30 08:01:04;;;;;;;1.98;0.75;;;15.00;99.90;;;;;;5089161;28;20095;-64
2022/05/30 08:03:30;;;;;;;2.45;0.50;;;15.10;99.90;;;;;;5113824;28;20106;-65
2022/05/30 08:06:12;;;;;;;1.35;0.70;;;14.90;99.90;;;;;;5087610;28;20048;-64
2022/05/30 08:08:39;;;;;;;0.95;0.40;;;14.70;99.90;;;;;;5098115;28;20105;-65
2022/05/30 08:11:05;;;;;;;2.53;0.82;;;14.50;99.90;;;;;;5094728;28;20446;-65
2022/05/30 08:13:31;;;;;;;1.40;0.60;;;14.40;99.90;;;;;;5093821;28;20093;-65
2022/05/30 08:15:56;;;;;;;0.98;0.60;;;14.50;99.90;;;;;;5093841;28;20044;-65
2022/05/30 08:18:22;;;;;;;2.42;0.68;;;14.80;99.90;;;;;;5110068;28;20044;-66
2022/05/30 08:20:48;;;;;;;1.30;0.60;;;14.90;99.90;;;;;;5093950;28;20403;-65
2022/05/30 08:23:14;;;;;;;1.13;0.60;;;14.90;99.90;;;;;;5093105;28;20060;-65
2022/05/30 08:25:41;;;;;;;1.58;0.60;;;14.80;99.90;;;;;;5092864;28;20062;-65
2022/05/30 08:28:06;;;;;;;0.70;0.47;;;14.80;99.90;;;;;;5093374;28;20063;-65
2022/05/30 08:30:32;;;;;;;1.92;0.50;;;14.70;99.90;;;;;;5093595;28;20525;-64
2022/05/30 08:32:58;;;;;;;1.13;0.50;;;14.50;99.90;;;;;;5093549;28;20122;-65
2022/05/30 08:35:23;;;;;;;0.90;0.50;;;14.30;99.90;;;;;;5094315;28;20047;-65
2022/05/30 08:37:50;;;;;;;1.15;0.47;;;14.20;99.90;;;;;;5095377;28;20498;-65
2022/05/30 08:43:25;;;;;;;1.15;0.55;;;14.10;99.90;;;;;;5094090;28;20139;-65
2022/05/30 08:46:04;;;;;;;1.45;0.68;;;13.90;99.90;;;;;;5092831;28;20048;-65
2022/05/30 08:48:41;;;;;;;0.63;0.60;;;13.60;99.90;;;;;;5099355;28;20053;-64
2022/05/30 08:51:33;;;;;;;0.85;0.40;;;13.40;99.90;;;;;;5134743;27;20364;-65
2022/05/30 08:54:24;;;;;;;2.00;0.70;;;13.20;99.90;;;;;;5072453;28;20182;-66
2022/05/30 08:56:54;;;;;;;0.93;0.50;;;13.10;99.90;;;;;;5073375;28;20523;-64
2022/05/30 08:59:40;;;;;;;0.82;0.40;;;13.00;99.90;;;;;;5073425;28;20802;-65
2022/05/30 09:02:20;;;;;;;0.73;0.52;;;12.90;99.90;;;;;;5073348;28;20098;-66
2022/05/30 09:04:57;;;;;;;2.80;0.73;;;12.80;99.90;;;;;;5073617;28;20036;-65
2022/05/30 09:07:29;;;;;;;2.17;0.70;;;12.70;99.90;;;;;;5125400;27;20043;-66
2022/05/30 09:10:02;;;;;;;1.35;0.55;;;12.60;99.90;;;;;;5112523;28;20048;-64
2022/05/30 09:12:45;;;;;;;0.50;0.40;;;12.60;99.90;;;;;;5146578;27;20096;-65
2022/05/30 09:15:18;;;;;;;0.73;0.38;;;12.50;99.90;;;;;;5113818;28;20492;-65
2022/05/30 09:18:14;;;;;;;1.08;0.50;;;12.60;99.90;;;;;;5140613;27;20412;-64
2022/05/30 09:20:41;;;;;;;7.05;2.78;;;12.60;99.90;;;;;;5091498;28;20507;-64
2022/05/30 09:23:07;;;;;;;1.75;1.20;;;12.80;99.90;;;;;;5092899;28;20073;-65
2022/05/30 09:26:07;;;;;;;2.38;1.30;;;13.00;99.90;;;;;;5092838;28;20192;-65
2022/05/30 09:28:35;;;;;;;1.10;0.50;;;13.10;99.90;;;;;;5126201;27;20424;-65
2022/05/30 09:31:14;;;;;;;1.13;0.40;;;13.20;99.90;;;;;;5125453;27;20109;-64
2022/05/30 09:33:46;;;;;;;0.77;0.50;;;13.30;99.90;;;;;;5103702;28;20124;-65
2022/05/30 09:36:27;;;;;;;1.58;0.80;;;13.40;99.90;;;;;;5099015;28;20056;-65
2022/05/30 09:39:05;;;;;;;0.22;0.22;;;13.60;99.90;;;;;;5108898;28;20090;-66
2022/05/30 09:41:40;;;;;;;0.63;0.40;;;13.80;99.90;;;;;;5126021;27;20063;-65
2022/05/30 09:44:17;;;;;;;2.58;0.70;;;13.90;99.90;;;;;;5093187;28;20083;-65
2022/05/30 09:46:49;;;;;;;1.70;0.60;;;14.00;99.90;;;;;;5092331;28;20110;-64
2022/05/30 09:49:25;;;;;;;1.75;0.98;;;14.20;99.90;;;;;;5107078;28;20233;-64
2022/05/30 09:52:00;;;;;;;0.68;0.45;;;14.40;99.90;;;;;;5092702;28;20071;-65
2022/05/30 09:54:25;;;;;;;2.08;0.75;;;14.60;99.90;;;;;;5091723;28;20090;-63
2022/05/30 09:57:13;;;;;;;1.27;0.75;;;14.90;99.90;;;;;;5093085;28;20087;-65
2022/05/30 09:59:41;;;;;;;1.02;0.40;;;15.00;99.90;;;;;;5090846;28;20159;-65
2022/05/30 10:02:24;;;;;;;2.97;0.45;;;15.00;99.90;;;;;;5091572;28;20518;-64
2022/05/30 10:04:56;;;;;;;0.20;0.20;;;15.10;99.90;;;;;;5092023;28;20370;-64
2022/05/30 10:07:22;;;;;;;0.20;0.20;;;15.30;99.90;;;;;;5102927;28;20485;-65
2022/05/30 10:09:58;;;;;;;0.20;0.20;;;15.40;99.90;;;;;;5109953;28;20087;-65
2022/05/30 10:12:40;;;;;;;0.73;0.28;;;15.70;99.90;;;;;;5127440;27;20473;-64
2022/05/30 10:15:23;;;;;;;0.63;0.20;;;15.90;99.90;;;;;;5090110;28;20052;-65
2022/05/30 10:17:49;;;;;;;2.15;0.52;;;16.10;98.10;;;;;;5090657;28;20302;-65
2022/05/30 10:20:39;;;;;;;0.20;0.20;;;16.00;99.90;;;;;;5091072;28;20087;-64
2022/05/30 10:28:55;;;;;;;1.42;0.50;;;16.40;99.90;;;;;;5089811;28;20044;-64
2022/05/30 10:31:27;;;;;;;1.08;0.50;;;16.50;99.90;;;;;;5077583;28;20044;-64
2022/05/30 10:33:55;;;;;;;1.27;0.50;;;16.60;99.90;;;;;;5095210;28;20064;-65
2022/05/30 10:36:32;;;;;;;2.50;0.43;;;16.60;99.90;;;;;;5096385;28;20058;-63
2022/05/30 10:39:35;;;;;;;1.60;0.40;;;16.50;99.90;;;;;;5097323;28;20063;-65
2022/05/30 10:42:08;;;;;;;0.73;0.22;;;16.80;99.90;;;;;;5107084;28;20396;-65
2022/05/30 10:44:44;;;;;;;0.75;0.32;;;17.00;99.90;;;;;;5105011;28;20063;-65
2022/05/30 10:47:22;;;;;;;0.68;0.32;;;16.90;99.90;;;;;;5149522;27;20436;-65
2022/05/30 10:49:58;;;;;;;1.58;0.45;;;16.80;94.80;;;;;;5117153;28;20051;-64
2022/05/30 10:52:32;;;;;;;1.80;0.50;;;16.60;99.90;;;;;;5099670;28;20056;-65
2022/05/30 10:55:04;;;;;;;1.02;0.43;;;16.40;99.90;;;;;;5109581;28;20051;-65
2022/05/30 10:58:04;;;;;;;1.05;0.50;;;16.10;99.90;;;;;;5111732;27;20473;-63
2022/05/30 11:00:39;;;;;;;1.92;0.80;;;15.90;99.90;;;;;;5102266;28;20048;-65
2022/05/30 11:03:32;;;;;;;0.52;0.30;;;15.70;99.90;;;;;;5098091;27;20412;-65
2022/05/30 11:06:05;;;;;;;0.55;0.40;;;15.50;99.90;;;;;;5095121;28;20055;-64
2022/05/30 11:08:41;;;;;;;1.02;0.50;;;15.30;99.90;;;;;;5096024;28;20056;-65
2022/05/30 11:11:23;;;;;;;0.45;0.30;;;15.20;99.90;;;;;;5103856;28;20101;-65
2022/05/30 11:14:02;;;;;;;0.90;0.40;;;15.10;99.90;;;;;;5116387;28;20058;-65
2022/05/30 11:16:56;;;;;;;0.60;0.30;;;15.00;99.90;;;;;;5111447;28;20092;-64
2022/05/30 11:19:51;;;;;;;0.65;0.25;;;15.00;99.90;;;;;;5096282;28;20048;-65
2022/05/30 11:22:25;;;;;;;0.30;0.30;;;15.00;99.90;;;;;;5096163;28;20048;-64
2022/05/30 11:24:52;;;;;;;0.30;0.30;;;15.00;99.90;;;;;;5094977;28;20433;-65
2022/05/30 11:27:24;;;;;;;0.63;0.20;;;15.10;99.90;;;;;;5095588;28;20127;-65
2022/05/30 11:30:08;;;;;;;0.82;0.30;;;15.30;99.90;;;;;;5102566;28;20051;-66
2022/05/30 11:33:01;;;;;;;1.60;0.50;;;15.40;99.90;;;;;;5115723;28;20128;-66
2022/05/30 11:35:27;;;;;;;;;;;15.60;99.90;;;;;;5103740;28;20488;-65
2022/05/30 11:38:01;;;;;;;3.20;0.60;;;15.60;94.20;;;;;;5094743;28;19920;-63
2022/05/30 11:40:32;;;;;;;2.30;0.70;;;15.60;99.90;;;;;;5093722;28;20504;-65
2022/05/30 11:43:42;;;;;;;3.63;0.82;;;15.50;99.90;;;;;;5093893;28;20056;-64
2022/05/30 11:46:21;;;;;;;0.85;0.75;;;15.20;99.90;;;;;;5051497;28;20053;-64
2022/05/30 11:49:14;;;;;;;0.80;0.70;;;14.80;99.90;;;;;;5083672;28;20059;-65
2022/05/30 11:52:17;;;;;;;4.68;0.80;;;14.60;99.90;;;;;;5075170;28;20080;-64
2022/05/30 11:55:07;;;;;;;1.55;0.70;;;14.30;99.90;;;;;;5091603;28;20059;-64
2022/05/30 11:57:43;;;;;;;2.15;0.65;;;14.00;99.90;;;;;;5094563;28;20044;-65
2022/05/30 12:00:36;;;;;;;1.13;0.60;;;13.80;99.90;;;;;;5102898;28;20051;-63
2022/05/30 12:03:24;;;;;;;1.20;0.68;;;13.60;99.90;;;;;;5108328;28;20078;-64
2022/05/30 12:06:09;;;;;;;2.70;0.80;;;13.40;99.90;;;;;;5096905;28;20047;-64
2022/05/30 12:09:14;;;;;;;0.70;0.63;;;13.30;99.90;;;;;;5095222;28;20069;-64
2022/05/30 12:12:24;;;;;;;1.75;0.70;;;13.10;99.90;;;;;;5074785;28;20161;-64
2022/05/30 12:15:16;;;;;;;5.75;0.90;;;13.00;99.90;;;;;;5040561;28;20564;-65
2022/05/30 12:24:09;;;;;;;1.35;0.93;;;12.60;99.90;;;;;;5114023;28;20053;-65
2022/05/30 12:26:49;;;;;;;1.73;0.80;;;12.50;99.90;;;;;;5115077;28;20047;-64
2022/05/30 12:29:35;;;;;;;1.08;0.80;;;12.60;99.90;;;;;;5105595;28;20108;-64
2022/05/30 12:32:20;;;;;;;4.57;0.82;;;12.70;99.90;;;;;;5098302;28;20063;-64
2022/05/30 12:34:57;;;;;;;3.83;1.42;;;12.90;99.90;;;;;;5094599;28;20056;-65
2022/05/30 12:37:51;;;;;;;1.92;0.80;;;13.10;99.90;;;;;;5094388;28;20059;-65
2022/05/30 12:40:26;;;;;;;2.25;0.80;;;13.30;99.90;;;;;;5091159;28;20501;-64
2022/05/30 12:43:06;;;;;;;0.93;0.60;;;13.40;99.90;;;;;;5074559;28;20060;-65
2022/05/30 12:45:57;;;;;;;1.35;0.65;;;13.50;99.90;;;;;;5090148;28;20341;-64
2022/05/30 12:48:36;;;;;;;1.00;0.55;;;13.60;99.90;;;;;;5086501;28;20047;-65
2022/05/30 12:51:26;;;;;;;1.05;0.60;;;13.60;99.90;;;;;;5114492;28;20062;-63
2022/05/30 12:53:54;;;;;;;1.70;0.75;;;13.70;99.90;;;;;;5114018;28;20047;-65
2022/05/30 12:56:38;;;;;;;0.75;0.73;;;13.80;99.90;;;;;;5136226;27;20128;-65
2022/05/30 12:59:04;;;;;;;1.55;0.52;;;14.00;99.90;;;;;;5148183;27;20051;-65
2022/05/30 13:01:44;;;;;;;1.77;0.70;;;14.00;99.90;;;;;;5114089;28;20488;-65
2022/05/30 13:04:22;;;;;;;2.60;0.70;;;14.20;99.90;;;;;;5124950;27;20141;-65
2022/05/30 13:07:13;;;;;;;1.13;0.60;;;14.40;99.90;;;;;;5090904;28;20055;-65
2022/05/30 13:09:46;;;;;;;2.65;0.85;;;14.60;99.90;;;;;;5094442;28;20048;-64
2022/05/30 13:12:12;;;;;;;1.73;0.65;;;14.70;99.90;;;;;;5128210;27;20049;-64
2022/05/30 13:14:40;;;;;;;1.70;0.82;;;14.90;99.90;;;;;;5125482;27;20457;-65
2022/05/30 13:17:24;;;;;;;1.30;0.82;;;15.30;99.90;;;;;;5100584;28;20074;-64
2022/05/30 13:19:53;;;;;;;1.10;0.68;;;15.70;99.90;;;;;;5106484;28;20051;-65
2022/05/30 13:22:27;;;;;;;0.80;0.60;;;16.10;99.90;;;;;;5092591;28;20070;-65
2022/05/30 13:24:53;;;;;;;0.75;0.70;;;16.60;99.90;;;;;;5093785;28;20063;-66
2022/05/30 13:27:19;;;;;;;1.60;0.85;;;16.80;99.90;;;;;;5092143;28;20059;-65
2022/05/30 13:29:45;;;;;;;1.48;0.90;;;17.00;99.90;;;;;;5101985;28;20052;-64
2022/05/30 13:32:15;;;;;;;2.13;0.90;;;17.30;99.90;;;;;;5112224;28;20464;-64
2022/05/30 13:34:44;;;;;;;2.85;0.60;;;17.40;99.90;;;;;;5109557;28;20055;-64
2022/05/30 13:37:10;;;;;;;2.05;0.47;;;17.60;99.90;;;;;;5091926;28;20051;-65
2022/05/30 13:39:42;;;;;;;0.50;0.50;;;17.80;99.90;;;;;;5091567;28;20088;-65